Time;durP1;ratioP1;P1;durP2;ratioP2;P2;SDS_P1;SDS_P2;PMS_P1;PMS_P2;Temp;Humidity;BMP_temperature;BMP_pressure;BME280_temperature;BME280_humidity;BME280_pressure;Samples;Min_cycle;Max_cycle;Signal;HPM_P1;HPM_P2
2021/07/01 00:02:17;;;;;;;;;;;;;;;21.46;69.24;100287.65;126396;1097;104557;-77
2021/07/01 00:04:46;;;;;;;;;;;;;;;21.43;69.41;100267.20;126457;1099;104169;-75
2021/07/01 00:07:15;;;;;;;;;;;;;;;21.35;69.74;100261.09;126310;1099;107923;-76
2021/07/01 00:09:44;;;;;;;;;;;;;;;21.27;69.63;100260.28;126385;1099;104242;-75
2021/07/01 00:12:14;;;;;;;;;;;;;;;21.17;69.08;100247.05;126396;1099;104214;-76
2021/07/01 00:14:43;;;;;;;;;;;;;;;21.06;70.06;100230.30;126449;1098;104264;-76
2021/07/01 00:17:12;;;;;;;;;;;;;;;21.02;69.81;100196.58;126345;1099;104150;-75
2021/07/01 00:19:41;;;;;;;;;;;;;;;21.04;70.84;100181.42;126371;1099;104172;-76
2021/07/01 00:22:10;;;;;;;;;;;;;;;21.07;70.09;100177.84;126343;1099;104172;-75
2021/07/01 00:24:39;;;;;;;;;;;;;;;21.09;70.88;100184.03;126398;1098;104162;-75
2021/07/01 00:27:08;;;;;;;;;;;;;;;21.13;70.90;100183.98;126301;1099;104211;-75
2021/07/01 00:29:37;;;;;;;;;;;;;;;21.12;70.48;100184.88;126403;1099;104238;-75
2021/07/01 00:32:07;;;;;;;;;;;;;;;21.13;70.36;100186.64;126351;1099;104233;-75
2021/07/01 00:34:36;;;;;;;;;;;;;;;21.15;71.12;100182.16;126418;1099;104156;-77
2021/07/01 00:37:05;;;;;;;;;;;;;;;21.16;71.13;100172.36;126301;1098;104184;-76
2021/07/01 00:39:34;;;;;;;;;;;;;;;21.10;71.09;100178.68;126432;1099;104200;-76
2021/07/01 00:42:04;;;;;;;;;;;;;;;21.01;70.44;100176.13;126390;1099;104143;-75
2021/07/01 00:44:33;;;;;;;;;;;;;;;21.01;71.37;100169.00;126398;1099;104133;-76
2021/07/01 00:47:03;;;;;;;;;;;;;;;21.09;71.65;100152.02;126360;1099;104201;-77
2021/07/01 00:49:32;;;;;;;;;;;;;;;21.11;71.23;100134.20;126401;1098;104152;-75
2021/07/01 00:52:02;;;;;;;;;;;;;;;21.10;71.12;100120.00;126414;1099;105282;-75
2021/07/01 00:54:32;;;;;;;;;;;;;;;21.11;71.15;100112.86;126352;1099;104198;-76
2021/07/01 00:57:01;;;;;;;;;;;;;;;21.11;70.74;100097.73;126296;1099;104136;-74
2021/07/01 00:59:31;;;;;;;;;;;;;;;21.10;70.88;100065.73;126394;1099;104178;-75
2021/07/01 01:02:00;;;;;;;;;;;;;;;21.11;71.87;100049.70;126411;1098;104166;-76
2021/07/01 01:04:29;;;;;;;;;;;;;;;21.12;71.93;100027.47;126381;1099;104211;-75
2021/07/01 01:06:59;;;;;;;;;;;;;;;21.17;71.93;100024.73;126326;1099;104141;-75
2021/07/01 01:09:28;;;;;;;;;;;;;;;21.18;71.97;100005.17;126302;1099;104194;-75
2021/07/01 01:11:57;;;;;;;;;;;;;;;21.22;71.96;99989.98;126357;1099;104243;-76
2021/07/01 01:14:27;;;;;;;;;;;;;;;21.22;72.33;99974.84;126382;1099;104134;-75
2021/07/01 01:17:08;;;;;;;;;;;;;;;21.20;71.76;99955.33;126371;1097;104281;-75
2021/07/01 01:19:37;;;;;;;;;;;;;;;21.13;72.11;99940.31;126417;1097;104140;-75
2021/07/01 01:22:07;;;;;;;;;;;;;;;21.07;72.47;99914.64;126379;1098;104198;-76
2021/07/01 01:24:39;;;;;;;;;;;;;;;20.97;71.83;99911.26;126409;1098;104566;-76
2021/07/01 01:27:08;;;;;;;;;;;;;;;20.92;71.78;99936.23;126313;1099;104191;-75
2021/07/01 01:29:38;;;;;;;;;;;;;;;20.87;72.34;99941.63;126412;1099;104140;-75
2021/07/01 01:32:17;;;;;;;;;;;;;;;20.87;73.09;99951.42;126375;1099;104291;-76
2021/07/01 01:34:47;;;;;;;;;;;;;;;20.88;73.04;99951.41;126367;1097;104237;-76
2021/07/01 01:37:16;;;;;;;;;;;;;;;20.88;72.75;99940.73;126334;1099;104201;-77
2021/07/01 01:39:47;;;;;;;;;;;;;;;20.88;72.42;99947.84;126402;1099;104230;-77
2021/07/01 01:42:18;;;;;;;;;;;;;;;20.87;72.57;99943.43;126398;1099;104150;-76
2021/07/01 01:44:48;;;;;;;;;;;;;;;20.84;72.97;99947.01;126388;1099;104261;-78
2021/07/01 01:47:18;;;;;;;;;;;;;;;20.87;73.10;99946.09;126279;1098;104216;-78
2021/07/01 01:49:48;;;;;;;;;;;;;;;20.91;73.23;99953.13;126397;1099;104137;-77
2021/07/01 01:52:19;;;;;;;;;;;;;;;20.92;73.17;99949.56;126397;1099;104143;-77
2021/07/01 01:54:48;;;;;;;;;;;;;;;20.93;72.33;99940.67;126431;1098;104198;-76
2021/07/01 01:57:18;;;;;;;;;;;;;;;20.91;73.10;99918.45;126342;1099;104140;-75
2021/07/01 02:00:08;;;;;;;;;;;;;;;20.85;72.72;99898.12;126357;1099;104163;-76
2021/07/01 02:02:49;;;;;;;;;;;;;;;20.81;73.11;99902.60;126413;1099;104624;-76
2021/07/01 02:05:29;;;;;;;;;;;;;;;20.79;73.14;99928.41;126341;1096;104146;-75
2021/07/01 02:07:58;;;;;;;;;;;;;;;20.76;72.92;99919.59;126339;1099;104294;-76
2021/07/01 02:10:33;;;;;;;;;;;;;;;20.72;73.40;99915.20;126369;1099;104153;-76
2021/07/01 02:13:03;;;;;;;;;;;;;;;20.69;72.43;99900.13;126354;1099;104255;-75
2021/07/01 02:15:33;;;;;;;;;;;;;;;20.68;72.84;99909.05;126414;1099;104239;-76
2021/07/01 02:18:03;;;;;;;;;;;;;;;20.65;74.83;99919.75;126353;1099;104143;-77
2021/07/01 02:20:32;;;;;;;;;;;;;;;20.62;73.11;99919.77;126431;1099;104142;-75
2021/07/01 02:23:02;;;;;;;;;;;;;;;20.61;73.55;99937.52;126392;1099;104278;-76
2021/07/01 02:25:35;;;;;;;;;;;;;;;20.61;72.91;99934.86;126330;1098;104188;-75
2021/07/01 02:28:17;;;;;;;;;;;;;;;20.60;73.35;99935.78;126362;1098;104251;-77
2021/07/01 02:31:02;;;;;;;;;;;;;;;20.64;72.95;99940.17;126424;1097;104152;-77
2021/07/01 02:33:32;;;;;;;;;;;;;;;20.69;73.43;99944.57;126398;1099;104204;-76
2021/07/01 02:36:02;;;;;;;;;;;;;;;20.70;73.00;99933.89;126377;1099;104143;-76
2021/07/01 02:38:48;;;;;;;;;;;;;;;20.76;73.61;99944.45;126305;1098;104245;-77
2021/07/01 02:41:19;;;;;;;;;;;;;;;20.81;73.73;99955.05;126435;1099;104143;-75
2021/07/01 02:43:50;;;;;;;;;;;;;;;20.85;73.97;99945.22;126401;1098;104226;-77
2021/07/01 02:46:39;;;;;;;;;;;;;;;20.91;72.96;99946.02;126415;1099;104128;-77
2021/07/01 02:49:12;;;;;;;;;;;;;;;20.95;73.54;99938.84;126372;1099;105489;-76
2021/07/01 02:51:41;;;;;;;;;;;;;;;21.01;73.99;99944.95;126365;1099;104669;-76
2021/07/01 02:54:11;;;;;;;;;;;;;;;21.05;73.14;99918.23;126456;1099;104233;-77
2021/07/01 02:56:43;;;;;;;;;;;;;;;21.08;73.54;99912.84;126349;1099;104169;-76
2021/07/01 02:59:16;;;;;;;;;;;;;;;21.09;73.68;99891.48;126368;1099;104233;-75
2021/07/01 03:01:59;;;;;;;;;;;;;;;21.11;73.68;99884.32;126389;1099;104242;-77
2021/07/01 03:04:32;;;;;;;;;;;;;;;21.16;73.75;99893.15;126380;1099;104188;-77
2021/07/01 03:07:02;;;;;;;;;;;;;;;21.21;74.02;99887.73;126416;1097;104230;-77
2021/07/01 03:09:32;;;;;;;;;;;;;;;21.25;72.86;99909.89;126300;1098;104144;-77
2021/07/01 03:12:02;;;;;;;;;;;;;;;21.28;73.48;99941.86;126400;1099;104188;-76
2021/07/01 03:14:31;;;;;;;;;;;;;;;21.26;72.51;99965.89;126382;1099;104238;-77
2021/07/01 03:17:02;;;;;;;;;;;;;;;21.15;72.87;99957.20;126335;1098;104140;-77
2021/07/01 03:19:31;;;;;;;;;;;;;;;21.05;72.58;99951.14;126349;1099;104140;-76
2021/07/01 03:22:18;;;;;;;;;;;;;;;21.01;72.92;99952.09;126379;1099;104248;-77
2021/07/01 03:24:48;;;;;;;;;;;;;;;21.02;73.59;99951.19;126376;1099;104156;-77
2021/07/01 03:27:18;;;;;;;;;;;;;;;21.04;73.57;99960.04;126404;1099;105316;-78
2021/07/01 03:29:47;;;;;;;;;;;;;;;21.07;73.03;99964.45;126318;1099;104153;-78
2021/07/01 03:32:18;;;;;;;;;;;;;;;21.08;72.80;99960.86;126390;1098;104197;-76
2021/07/01 03:34:47;;;;;;;;;;;;;;;21.08;73.38;99968.86;126370;1099;104236;-76
2021/07/01 03:37:20;;;;;;;;;;;;;;;21.10;72.77;99991.05;126401;1099;105274;-76
2021/07/01 03:40:10;;;;;;;;;;;;;;;21.06;73.75;100008.89;126353;1097;104235;-76
2021/07/01 03:42:40;;;;;;;;;;;;;;;21.03;73.05;100006.27;126347;1098;104197;-76
2021/07/01 03:45:10;;;;;;;;;;;;;;;21.05;72.94;100015.16;126415;1098;104220;-76
2021/07/01 03:47:41;;;;;;;;;;;;;;;21.08;73.39;99992.87;126407;1096;104146;-77
2021/07/01 03:50:10;;;;;;;;;;;;;;;21.10;73.54;99973.28;126389;1099;105511;-77
2021/07/01 03:52:59;;;;;;;;;;;;;;;21.17;74.18;99958.05;126366;1097;104127;-77
2021/07/01 03:55:29;;;;;;;;;;;;;;;21.21;73.53;99949.09;126359;1099;104185;-77
2021/07/01 03:57:59;;;;;;;;;;;;;;;21.26;73.58;99928.55;126398;1099;104299;-76
2021/07/01 04:00:30;;;;;;;;;;;;;;;21.35;73.94;99914.17;126355;1099;101932;-77
2021/07/01 04:03:00;;;;;;;;;;;;;;;21.47;73.86;99905.04;126408;1099;104150;-76
2021/07/01 04:05:36;;;;;;;;;;;;;;;21.56;74.00;99914.71;126444;1096;104367;-76
2021/07/01 04:08:06;;;;;;;;;;;;;;;21.62;74.13;99934.16;126396;1099;104139;-77
2021/07/01 04:10:49;;;;;;;;;;;;;;;21.71;73.71;99925.10;126311;1099;104284;-77
2021/07/01 04:13:21;;;;;;;;;;;;;;;21.81;73.95;99902.63;126435;1097;104201;-78
2021/07/01 04:16:09;;;;;;;;;;;;;;;21.99;73.90;99900.52;126408;1099;104178;-77
2021/07/01 04:18:49;;;;;;;;;;;;;;;22.13;73.84;99894.85;126358;1099;104225;-78
2021/07/01 04:21:27;;;;;;;;;;;;;;;22.24;73.78;99895.53;126290;1099;105570;-77
2021/07/01 04:24:16;;;;;;;;;;;;;;;22.35;73.78;99895.33;126402;1099;104226;-78
2021/07/01 04:27:00;;;;;;;;;;;;;;;22.44;73.40;99912.02;126240;1099;104178;-76
2021/07/01 04:29:33;;;;;;;;;;;;;;;22.50;73.75;99935.08;126381;1099;102780;-77
2021/07/01 04:32:04;;;;;;;;;;;;;;;22.57;74.01;99966.09;126340;1099;104149;-77
2021/07/01 04:34:34;;;;;;;;;;;;;;;22.64;72.92;99965.95;126335;1099;104213;-78
2021/07/01 04:37:05;;;;;;;;;;;;;;;22.71;73.61;99994.33;126359;1099;104165;-76
2021/07/01 04:39:41;;;;;;;;;;;;;;;22.77;73.59;99988.84;126354;1099;104139;-78
2021/07/01 04:42:16;;;;;;;;;;;;;;;22.82;73.18;99988.73;126322;1099;104156;-77
2021/07/01 04:44:46;;;;;;;;;;;;;;;22.86;73.55;99993.08;126259;1099;104233;-76
2021/07/01 04:47:16;;;;;;;;;;;;;;;22.92;73.58;99993.84;126373;1099;104236;-77
2021/07/01 04:49:48;;;;;;;;;;;;;;;22.93;73.18;100011.62;126364;1099;104290;-77
2021/07/01 04:52:29;;;;;;;;;;;;;;;22.95;73.34;100033.91;126320;1099;104669;-77
2021/07/01 04:55:09;;;;;;;;;;;;;;;22.96;73.44;100046.34;126395;1098;104207;-76
2021/07/01 04:57:49;;;;;;;;;;;;;;;22.94;73.14;100056.20;126375;1099;104216;-76
2021/07/01 05:00:19;;;;;;;;;;;;;;;22.87;73.09;100043.87;126359;1099;104169;-77
2021/07/01 05:02:59;;;;;;;;;;;;;;;22.88;73.12;100064.37;126323;1099;104220;-76
2021/07/01 05:05:30;;;;;;;;;;;;;;;22.91;72.58;100107.10;126335;1099;104136;-76
2021/07/01 05:08:01;;;;;;;;;;;;;;;22.89;72.52;100100.02;126398;1099;104198;-77
2021/07/01 05:10:30;;;;;;;;;;;;;;;22.92;72.31;100090.15;126341;1099;104188;-77
2021/07/01 05:13:03;;;;;;;;;;;;;;;23.03;72.39;100129.15;126284;1099;104159;-77
2021/07/01 05:15:35;;;;;;;;;;;;;;;23.08;72.16;100148.69;126393;1098;104136;-76
2021/07/01 05:18:07;;;;;;;;;;;;;;;23.08;72.41;100159.39;126314;1099;104159;-77
2021/07/01 05:20:42;;;;;;;;;;;;;;;23.11;72.62;100167.39;126344;1099;104174;-76
2021/07/01 05:23:29;;;;;;;;;;;;;;;23.11;71.91;100191.47;126314;1099;119822;-77
2021/07/01 05:26:19;;;;;;;;;;;;;;;23.08;72.26;100187.05;126304;1096;104169;-77
2021/07/01 05:29:00;;;;;;;;;;;;;;;23.12;72.07;100210.17;126324;1099;104169;-76
2021/07/01 05:31:42;;;;;;;;;;;;;;;23.15;71.64;100212.78;126204;1098;104134;-77
2021/07/01 05:34:29;;;;;;;;;;;;;;;23.18;71.98;100209.14;126332;1099;104166;-77
2021/07/01 05:36:59;;;;;;;;;;;;;;;23.24;71.61;100214.36;126259;1098;104182;-77
2021/07/01 05:39:34;;;;;;;;;;;;;;;23.27;72.08;100214.30;126246;1099;104274;-76
2021/07/01 05:42:07;;;;;;;;;;;;;;;23.36;71.72;100213.23;126097;1099;104235;-76
2021/07/01 05:44:38;;;;;;;;;;;;;;;23.41;71.50;100202.42;126289;1099;104239;-76
2021/07/01 05:47:09;;;;;;;;;;;;;;;23.36;71.28;100186.46;126300;1099;104249;-76
2021/07/01 05:49:40;;;;;;;;;;;;;;;23.32;71.53;100184.76;126391;1099;104137;-75
2021/07/01 05:52:11;;;;;;;;;;;;;;;23.31;72.11;100189.23;126292;1099;104192;-73
2021/07/01 05:54:51;;;;;;;;;;;;;;;23.32;71.77;100199.02;126378;1099;104201;-74
2021/07/01 05:57:21;;;;;;;;;;;;;;;23.22;72.07;100197.47;126296;1099;104220;-75
2021/07/01 05:59:50;;;;;;;;;;;;;;;23.17;71.86;100209.17;126336;1099;104134;-76
2021/07/01 06:02:21;;;;;;;;;;;;;;;23.11;71.88;100207.52;126294;1099;102276;-74
2021/07/01 06:04:51;;;;;;;;;;;;;;;23.03;72.07;100196.05;126285;1098;104146;-74
2021/07/01 06:07:39;;;;;;;;;;;;;;;22.88;72.04;100190.09;126199;1099;102273;-74
2021/07/01 06:10:11;;;;;;;;;;;;;;;22.73;72.05;100185.05;126055;1099;104286;-75
2021/07/01 06:12:41;;;;;;;;;;;;;;;22.60;71.87;100190.63;126078;1099;104268;-75
2021/07/01 06:15:11;;;;;;;;;;;;;;;22.52;72.97;100192.57;126139;1099;104194;-75
2021/07/01 06:17:43;;;;;;;;;;;;;;;22.49;72.72;100189.95;126184;1099;104265;-74
2021/07/01 06:20:14;;;;;;;;;;;;;;;22.45;73.04;100185.56;126192;1099;104226;-75
2021/07/01 06:22:43;;;;;;;;;;;;;;;22.39;73.21;100183.90;126065;1099;104159;-74
2021/07/01 06:25:13;;;;;;;;;;;;;;;22.34;72.50;100166.17;126175;1098;104243;-76
2021/07/01 06:27:48;;;;;;;;;;;;;;;22.27;72.64;100168.05;126272;1099;104254;-76
2021/07/01 06:30:24;;;;;;;;;;;;;;;22.19;72.91;100161.93;126188;1098;104204;-74
2021/07/01 06:33:02;;;;;;;;;;;;;;;22.11;72.60;100146.06;126049;1099;104287;-76
2021/07/01 06:35:31;;;;;;;;;;;;;;;22.03;73.29;100139.95;126233;1099;104156;-76
2021/07/01 06:38:10;;;;;;;;;;;;;;;21.99;73.42;100131.12;126338;1099;104220;-76
2021/07/01 06:41:01;;;;;;;;;;;;;;;21.93;72.46;100133.89;126286;1099;104174;-77
2021/07/01 06:43:50;;;;;;;;;;;;;;;21.87;73.00;100113.50;126261;1099;104265;-75
2021/07/01 06:46:32;;;;;;;;;;;;;;;21.83;73.27;100092.20;126246;1097;104245;-76
2021/07/01 06:49:21;;;;;;;;;;;;;;;21.76;73.62;100066.53;126263;1099;104242;-76
2021/07/01 06:52:13;;;;;;;;;;;;;;;21.75;73.69;100088.80;126198;1098;104169;-76
2021/07/01 06:55:02;;;;;;;;;;;;;;;21.85;73.53;100085.08;126156;1098;104249;-77
2021/07/01 06:57:50;;;;;;;;;;;;;;;21.96;73.58;100061.72;126218;1099;104163;-76
2021/07/01 07:00:24;;;;;;;;;;;;;;;22.06;72.92;100063.33;126261;1099;104280;-77
2021/07/01 07:02:57;;;;;;;;;;;;;;;22.17;73.16;100057.75;126168;1099;104168;-77
2021/07/01 07:05:33;;;;;;;;;;;;;;;22.34;73.19;100056.59;126348;1097;104281;-77
2021/07/01 07:08:09;;;;;;;;;;;;;;;22.51;73.67;100048.23;126186;1098;104441;-76
2021/07/01 07:10:42;;;;;;;;;;;;;;;22.63;73.52;100031.06;126271;1099;104161;-76
2021/07/01 07:13:12;;;;;;;;;;;;;;;22.75;73.69;100002.25;126285;1098;104195;-77
2021/07/01 07:15:42;;;;;;;;;;;;;;;22.91;73.39;99969.80;126165;1099;104153;-75
2021/07/01 07:18:15;;;;;;;;;;;;;;;23.03;73.41;99957.91;126299;1097;104198;-76
2021/07/01 07:20:46;;;;;;;;;;;;;;;23.11;73.05;99956.84;126306;1099;104175;-75
2021/07/01 07:23:19;;;;;;;;;;;;;;;23.01;72.28;99960.63;126034;1099;104287;-78
2021/07/01 07:25:51;;;;;;;;;;;;;;;23.01;72.85;99947.24;126006;1099;104322;-79
2021/07/01 07:28:23;;;;;;;;;;;;;;;23.06;72.86;99964.09;125327;1100;104200;-79
2021/07/01 07:30:57;;;;;;;;;;;;;;;23.22;73.02;99959.27;125338;1099;104213;-80
2021/07/01 07:33:29;;;;;;;;;;;;;;;23.39;73.27;99939.20;125269;1102;104412;-79
2021/07/01 07:36:02;;;;;;;;;;;;;;;23.49;72.85;99943.41;125787;1099;104286;-80
2021/07/01 07:38:35;;;;;;;;;;;;;;;23.58;72.71;99939.61;125300;1100;104399;-77
2021/07/01 07:41:06;;;;;;;;;;;;;;;23.66;73.15;99945.63;125199;1102;104335;-76
2021/07/01 07:43:38;;;;;;;;;;;;;;;23.73;72.99;99932.94;125308;1102;104299;-78
2021/07/01 07:46:14;;;;;;;;;;;;;;;23.75;72.81;99915.02;125134;1099;104182;-78
2021/07/01 07:48:44;;;;;;;;;;;;;;;23.86;72.92;99921.02;125205;1102;104300;-76
2021/07/01 07:51:18;;;;;;;;;;;;;;;23.94;72.89;99927.02;125233;1099;104679;-76
2021/07/01 07:53:49;;;;;;;;;;;;;;;24.07;72.73;99926.67;125292;1102;104316;-76
2021/07/01 07:56:27;;;;;;;;;;;;;;;24.12;72.54;99922.95;125379;1099;104149;-77
2021/07/01 07:58:59;;;;;;;;;;;;;;;24.23;72.65;99919.91;126145;1099;104265;-76
2021/07/01 08:01:31;;;;;;;;;;;;;;;24.27;72.53;99929.63;126074;1099;104600;-76
2021/07/01 08:04:06;;;;;;;;;;;;;;;24.32;72.71;99937.54;125356;1099;104223;-75
2021/07/01 08:06:42;;;;;;;;;;;;;;;24.39;73.02;99950.72;126135;1100;104146;-75
2021/07/01 08:09:13;;;;;;;;;;;;;;;24.46;72.62;99951.40;125463;1101;104236;-75
2021/07/01 08:11:43;;;;;;;;;;;;;;;24.48;72.31;99964.76;126273;1098;104251;-76
2021/07/01 08:14:14;;;;;;;;;;;;;;;24.55;72.63;99982.44;126194;1098;104210;-75
2021/07/01 08:16:49;;;;;;;;;;;;;;;24.64;72.51;99982.19;126037;1099;104313;-76
2021/07/01 08:19:18;;;;;;;;;;;;;;;24.74;72.38;99985.45;126239;1099;104192;-77
2021/07/01 08:21:50;;;;;;;;;;;;;;;24.73;72.21;99978.36;126153;1099;104376;-77
2021/07/01 08:24:27;;;;;;;;;;;;;;;24.72;71.97;99955.13;126124;1099;104306;-76
2021/07/01 08:26:58;;;;;;;;;;;;;;;24.69;72.21;99945.36;125394;1099;104214;-76
2021/07/01 08:29:28;;;;;;;;;;;;;;;24.74;71.98;99940.75;125315;1099;104223;-77
2021/07/01 08:32:05;;;;;;;;;;;;;;;24.81;71.95;99940.53;126048;1099;104406;-77
2021/07/01 08:34:39;;;;;;;;;;;;;;;24.81;72.12;99930.69;125987;1099;104220;-76
2021/07/01 08:37:08;;;;;;;;;;;;;;;24.89;72.33;99939.36;125348;1099;104213;-75
2021/07/01 08:39:42;;;;;;;;;;;;;;;25.02;72.28;99945.20;126049;1099;104214;-78
2021/07/01 08:42:17;;;;;;;;;;;;;;;25.14;72.00;99946.61;125362;1099;104344;-77
2021/07/01 08:44:54;;;;;;;;;;;;;;;25.21;71.33;99940.13;125253;1102;104284;-76
2021/07/01 08:47:31;;;;;;;;;;;;;;;25.26;71.30;99938.16;125196;1103;104248;-77
2021/07/01 08:50:06;;;;;;;;;;;;;;;25.32;70.69;99937.08;125259;1102;104211;-77
2021/07/01 08:52:39;;;;;;;;;;;;;;;25.37;71.44;99935.13;125291;1102;104206;-78
2021/07/01 08:55:17;;;;;;;;;;;;;;;25.42;71.17;99941.21;125267;1102;104995;-75
2021/07/01 08:57:50;;;;;;;;;;;;;;;25.40;71.50;99947.55;125258;1099;109016;-76
2021/07/01 09:00:22;;;;;;;;;;;;;;;25.40;70.99;99951.14;125369;1099;104294;-77
2021/07/01 09:03:02;;;;;;;;;;;;;;;25.41;71.67;99942.13;126109;1099;104274;-77
2021/07/01 09:05:33;;;;;;;;;;;;;;;25.46;71.35;99944.66;125420;1099;104437;-77
2021/07/01 09:08:06;;;;;;;;;;;;;;;25.50;70.83;99940.08;126039;1099;104297;-78
2021/07/01 09:10:37;;;;;;;;;;;;;;;25.60;70.74;99949.55;126103;1099;104501;-77
2021/07/01 09:13:10;;;;;;;;;;;;;;;25.67;71.43;99947.55;125491;1099;104368;-75
2021/07/01 09:15:40;;;;;;;;;;;;;;;25.80;71.28;99947.06;126172;1099;104647;-77
2021/07/01 09:18:12;;;;;;;;;;;;;;;26.03;70.69;99947.17;126172;1096;104158;-76
2021/07/01 09:20:43;;;;;;;;;;;;;;;26.16;70.84;99933.22;126250;1099;104166;-76
2021/07/01 09:23:14;;;;;;;;;;;;;;;26.29;70.40;99936.31;126264;1099;104143;-76
2021/07/01 09:25:47;;;;;;;;;;;;;;;26.56;70.33;99946.93;126250;1099;104233;-77
2021/07/01 09:28:18;;;;;;;;;;;;;;;26.72;70.29;99936.45;126280;1099;104252;-77
2021/07/01 09:30:48;;;;;;;;;;;;;;;26.94;69.75;99938.28;126289;1097;104255;-76
2021/07/01 09:33:21;;;;;;;;;;;;;;;27.02;69.99;99945.12;126363;1099;104216;-76
2021/07/01 09:35:52;;;;;;;;;;;;;;;27.11;69.35;99935.77;126282;1098;104274;-76
2021/07/01 09:38:22;;;;;;;;;;;;;;;27.25;69.77;99940.57;126067;1099;104213;-75
2021/07/01 09:40:54;;;;;;;;;;;;;;;27.32;69.38;99933.16;126162;1099;104213;-75
2021/07/01 09:43:28;;;;;;;;;;;;;;;27.40;69.47;99933.70;126203;1099;104347;-75
2021/07/01 09:46:00;;;;;;;;;;;;;;;27.54;69.36;99927.72;126289;1099;104245;-75
2021/07/01 09:48:33;;;;;;;;;;;;;;;27.57;68.56;99933.83;126253;1099;104134;-76
2021/07/01 09:51:04;;;;;;;;;;;;;;;27.77;68.94;99921.31;126354;1099;104790;-75
2021/07/01 09:53:34;;;;;;;;;;;;;;;27.78;68.58;99920.34;126258;1099;104278;-76
2021/07/01 09:56:06;;;;;;;;;;;;;;;27.85;68.10;99924.53;126284;1099;104156;-76
2021/07/01 09:58:38;;;;;;;;;;;;;;;28.00;68.04;99919.41;126208;1099;104160;-76
2021/07/01 10:01:22;;;;;;;;;;;;;;;28.01;67.97;99904.99;126010;1099;104172;-77
2021/07/01 10:03:57;;;;;;;;;;;;;;;28.08;67.54;99901.05;125974;1099;104223;-76
2021/07/01 10:06:28;;;;;;;;;;;;;;;28.09;67.31;99906.37;126110;1099;104171;-75
2021/07/01 10:08:57;;;;;;;;;;;;;;;28.09;67.04;99892.02;126025;1099;104178;-76
2021/07/01 10:11:37;;;;;;;;;;;;;;;28.24;67.29;99891.30;126000;1099;104270;-75
2021/07/01 10:14:07;;;;;;;;;;;;;;;28.42;66.91;99888.67;125911;1099;104207;-77
2021/07/01 10:16:37;;;;;;;;;;;;;;;28.57;66.28;99893.33;125991;1098;104222;-76
2021/07/01 10:19:08;;;;;;;;;;;;;;;28.53;65.97;99889.02;126179;1098;104147;-75
2021/07/01 10:21:38;;;;;;;;;;;;;;;28.69;65.82;99890.06;126147;1099;104166;-75
2021/07/01 10:24:12;;;;;;;;;;;;;;;28.92;65.73;99893.45;126195;1099;104207;-76
2021/07/01 10:26:50;;;;;;;;;;;;;;;29.09;65.57;99889.02;126017;1099;104181;-76
2021/07/01 10:29:20;;;;;;;;;;;;;;;29.23;64.87;99886.50;125897;1099;104267;-76
2021/07/01 10:31:54;;;;;;;;;;;;;;;29.33;64.78;99887.78;125830;1099;104335;-76
2021/07/01 10:34:25;;;;;;;;;;;;;;;29.40;64.03;99900.03;125873;1099;104226;-76
2021/07/01 10:37:09;;;;;;;;;;;;;;;29.48;63.91;99904.14;125987;1099;104140;-76
2021/07/01 10:39:40;;;;;;;;;;;;;;;29.53;63.22;99894.85;125869;1099;104306;-77
2021/07/01 10:42:09;;;;;;;;;;;;;;;29.60;63.12;99899.94;125995;1099;104313;-76
2021/07/01 10:44:39;;;;;;;;;;;;;;;29.71;62.32;99906.50;125996;1098;104325;-77
2021/07/01 10:50:22;;;;;;;;;;;;;;;29.91;61.78;99893.78;125202;1102;104268;-75
2021/07/01 10:52:52;;;;;;;;;;;;;;;30.01;62.33;99892.34;125141;1102;104635;-75
2021/07/01 10:55:23;;;;;;;;;;;;;;;30.03;61.36;99890.41;125194;1102;104163;-75
2021/07/01 10:57:57;;;;;;;;;;;;;;;30.02;60.99;99885.08;125320;1102;103265;-76
2021/07/01 11:00:40;;;;;;;;;;;;;;;29.99;60.89;99886.12;125166;1102;104178;-76
2021/07/01 11:03:13;;;;;;;;;;;;;;;30.04;61.35;99892.14;125234;1102;104267;-77
2021/07/01 11:05:43;;;;;;;;;;;;;;;30.11;61.05;99881.88;125281;1102;104187;-76
2021/07/01 11:08:23;;;;;;;;;;;;;;;30.14;60.50;99883.52;125191;1101;104152;-75
2021/07/01 11:10:58;;;;;;;;;;;;;;;30.25;60.25;99881.97;125030;1102;104267;-75
2021/07/01 11:13:31;;;;;;;;;;;;;;;30.26;59.85;99885.54;125154;1102;104270;-76
2021/07/01 11:16:13;;;;;;;;;;;;;;;30.29;59.50;99875.44;125063;1102;104169;-77
2021/07/01 11:18:44;;;;;;;;;;;;;;;30.24;58.76;99885.63;125044;1102;104173;-76
2021/07/01 11:21:17;;;;;;;;;;;;;;;30.20;58.61;99881.36;125131;1102;104153;-75
2021/07/01 11:23:48;;;;;;;;;;;;;;;30.17;58.38;99878.83;125184;1102;104586;-75
2021/07/01 11:26:30;;;;;;;;;;;;;;;30.13;57.69;99881.79;124964;1101;104235;-76
2021/07/01 11:29:04;;;;;;;;;;;;;;;30.10;58.25;99878.27;125160;1102;104165;-75
2021/07/01 11:31:41;;;;;;;;;;;;;;;30.10;58.15;99882.82;125110;1102;104165;-76
2021/07/01 11:34:14;;;;;;;;;;;;;;;30.13;57.90;99874.53;125166;1102;104137;-76
2021/07/01 11:36:49;;;;;;;;;;;;;;;30.13;57.76;99871.83;125184;1102;104143;-76
2021/07/01 11:39:27;;;;;;;;;;;;;;;30.18;57.55;99875.14;125171;1102;102103;-74
2021/07/01 11:42:01;;;;;;;;;;;;;;;30.09;57.50;99871.14;125198;1102;104158;-76
2021/07/01 11:44:31;;;;;;;;;;;;;;;30.04;57.11;99873.20;125143;1102;104216;-76
2021/07/01 11:47:04;;;;;;;;;;;;;;;30.05;57.04;99882.22;125177;1102;104200;-76
2021/07/01 11:49:38;;;;;;;;;;;;;;;30.11;56.69;99882.73;125162;1102;104175;-77
2021/07/01 11:52:11;;;;;;;;;;;;;;;30.19;56.33;99881.45;125209;1102;104136;-76
2021/07/01 11:54:41;;;;;;;;;;;;;;;30.30;56.30;99885.28;125162;1102;104195;-76
2021/07/01 11:57:11;;;;;;;;;;;;;;;30.47;55.87;99881.66;125148;1102;104223;-78
2021/07/01 11:59:42;;;;;;;;;;;;;;;30.68;55.39;99880.52;125246;1102;104248;-77
2021/07/01 12:02:12;;;;;;;;;;;;;;;30.83;55.12;99885.91;124896;1102;104223;-77
2021/07/01 12:04:44;;;;;;;;;;;;;;;30.94;53.99;99885.28;125062;1102;104174;-80
2021/07/01 12:07:24;;;;;;;;;;;;;;;31.06;54.84;99883.72;124992;1102;104296;-78
2021/07/01 12:09:58;;;;;;;;;;;;;;;31.13;54.57;99887.80;125100;1102;104140;-79
2021/07/01 12:12:34;;;;;;;;;;;;;;;31.19;54.61;99883.86;125046;1102;104217;-79
2021/07/01 12:15:06;;;;;;;;;;;;;;;31.40;54.22;99878.09;125242;1102;104618;-78
2021/07/01 12:17:51;;;;;;;;;;;;;;;31.57;54.57;99874.38;125008;1102;104140;-76
2021/07/01 12:20:28;;;;;;;;;;;;;;;31.81;53.90;99881.00;124969;1102;104153;-77
2021/07/01 12:23:00;;;;;;;;;;;;;;;31.94;53.63;99869.38;125086;1103;111922;-77
2021/07/01 12:25:42;;;;;;;;;;;;;;;32.04;53.59;99873.25;125025;1103;104172;-78
2021/07/01 12:28:14;;;;;;;;;;;;;;;32.28;53.03;99878.10;124992;1103;104243;-78
2021/07/01 12:30:57;;;;;;;;;;;;;;;32.39;52.81;99859.27;124932;1102;104441;-79
2021/07/01 12:33:34;;;;;;;;;;;;;;;32.53;52.88;99875.51;125066;1103;104226;-79
2021/07/01 12:36:07;;;;;;;;;;;;;;;32.58;52.83;99862.52;124981;1105;104153;-78
2021/07/01 12:38:53;;;;;;;;;;;;;;;32.75;52.98;99865.97;124974;1102;104306;-77
2021/07/01 12:41:25;;;;;;;;;;;;;;;32.83;52.68;99869.03;124970;1102;104141;-79
2021/07/01 12:43:55;;;;;;;;;;;;;;;32.75;51.38;99864.12;124864;1102;107104;-79
2021/07/01 12:46:38;;;;;;;;;;;;;;;32.63;51.71;99870.36;124968;1103;104379;-81
2021/07/01 12:49:33;;;;;;;;;;;;;;;32.52;51.62;99859.31;124995;1102;104198;-79
2021/07/01 12:52:06;;;;;;;;;;;;;;;32.45;51.37;99858.86;125052;1102;104150;-78
2021/07/01 12:54:50;;;;;;;;;;;;;;;32.41;51.92;99851.88;125206;1102;104172;-80
2021/07/01 12:57:30;;;;;;;;;;;;;;;32.38;50.86;99857.52;125148;1102;104129;-79
2021/07/01 13:00:01;;;;;;;;;;;;;;;32.34;51.02;99845.99;125107;1102;104619;-78